createdAt,value
2022-08-23T00:01:47.839Z,100124.23
2022-08-23T00:04:22.340Z,100131.55
2022-08-23T00:06:59.079Z,100135.04
2022-08-23T00:09:29.048Z,100134.11
2022-08-23T00:12:07.952Z,100132.95
2022-08-23T00:14:40.538Z,100136.98
2022-08-23T00:17:12.206Z,100140.13
2022-08-23T00:19:59.935Z,100135.55
2022-08-23T00:22:27.699Z,100136.27
2022-08-23T00:24:55.444Z,100129.31
2022-08-23T00:27:23.201Z,100125.85
2022-08-23T00:29:54.577Z,100118.90
2022-08-23T00:32:28.714Z,100119.21
2022-08-23T00:34:58.520Z,100123.20
2022-08-23T00:37:28.159Z,100125.65
2022-08-23T00:39:55.950Z,100128.67
2022-08-23T00:43:02.066Z,100130.38
2022-08-23T00:46:21.622Z,100123.41
2022-08-23T00:48:50.439Z,100126.79
2022-08-23T00:51:30.648Z,100134.02
2022-08-23T00:54:05.540Z,100135.92
2022-08-23T00:56:35.822Z,100139.13
2022-08-23T00:59:03.662Z,100149.69
2022-08-23T01:01:32.025Z,100157.77
2022-08-23T01:04:04.883Z,100163.94
2022-08-23T01:06:44.191Z,100167.63
2022-08-23T01:09:16.447Z,100172.60
2022-08-23T01:11:59.735Z,100181.01
2022-08-23T01:14:38.395Z,100178.65
2022-08-23T01:17:16.619Z,100185.04
2022-08-23T01:19:51.048Z,100179.95
2022-08-23T01:22:43.676Z,100183.75
2022-08-23T01:25:15.821Z,100185.90
2022-08-23T01:27:45.463Z,100194.00
2022-08-23T01:30:20.693Z,100196.20
2022-08-23T01:32:52.311Z,100198.93
2022-08-23T01:35:28.311Z,100203.57
2022-08-23T01:37:56.487Z,100201.38
2022-08-23T01:40:25.604Z,100196.45
2022-08-23T01:42:53.552Z,100189.13
2022-08-23T01:45:22.325Z,100185.16
2022-08-23T01:47:50.218Z,100183.43
2022-08-23T01:50:18.155Z,100187.19
2022-08-23T01:52:46.662Z,100188.80
2022-08-23T01:55:16.007Z,100194.35
2022-08-23T01:57:45.479Z,100197.48
2022-08-23T02:00:21.087Z,100200.27
2022-08-23T02:02:49.669Z,100203.22
2022-08-23T02:05:19.222Z,100197.48
2022-08-23T02:07:48.036Z,100187.97
2022-08-23T02:10:18.232Z,100197.59
2022-08-23T02:12:47.015Z,100210.59
2022-08-23T02:15:17.428Z,100216.08
2022-08-23T02:17:48.103Z,100220.98
2022-08-23T02:20:18.162Z,100213.94
2022-08-23T02:22:45.997Z,100199.86
2022-08-23T02:25:14.183Z,100197.11
2022-08-23T02:27:43.941Z,100191.21
2022-08-23T02:30:13.563Z,100193.11
2022-08-23T02:32:42.323Z,100186.88
2022-08-23T02:35:10.907Z,100183.62
2022-08-23T02:37:38.719Z,100169.98
2022-08-23T02:40:07.051Z,100160.83
2022-08-23T02:42:35.333Z,100163.67
2022-08-23T02:45:03.675Z,100158.31
2022-08-23T02:47:31.960Z,100154.73
2022-08-23T02:50:09.298Z,100151.11
2022-08-23T02:52:37.079Z,100156.58
2022-08-23T02:55:05.686Z,100158.09
2022-08-23T02:57:33.643Z,100162.57
2022-08-23T03:00:04.025Z,100161.23
2022-08-23T03:02:32.820Z,100152.02
2022-08-23T03:05:00.765Z,100151.16
2022-08-23T03:07:30.231Z,100151.18
2022-08-23T03:09:58.460Z,100151.81
2022-08-23T03:12:29.756Z,100147.39
2022-08-23T03:14:57.677Z,100147.14
2022-08-23T03:17:26.011Z,100143.06
2022-08-23T03:19:56.412Z,100141.08
2022-08-23T03:22:25.048Z,100139.34
2022-08-23T03:24:52.870Z,100137.73
2022-08-23T03:27:21.471Z,100137.27
2022-08-23T03:29:49.276Z,100140.73
2022-08-23T03:32:17.732Z,100141.79
2022-08-23T03:34:46.104Z,100137.48
2022-08-23T03:37:14.564Z,100138.81
2022-08-23T03:39:42.399Z,100138.40
2022-08-23T03:42:10.342Z,100139.89
2022-08-23T03:44:38.176Z,100134.89
2022-08-23T03:47:06.136Z,100128.15
2022-08-23T03:49:34.299Z,100127.48
2022-08-23T03:52:02.242Z,100126.80
2022-08-23T03:54:31.681Z,100122.82
2022-08-23T03:57:02.966Z,100120.40
2022-08-23T03:59:35.238Z,100123.66
2022-08-23T04:02:04.631Z,100125.59
2022-08-23T04:04:33.453Z,100117.54
2022-08-23T04:07:21.196Z,100112.29
2022-08-23T04:09:54.996Z,100119.02
2022-08-23T04:12:23.980Z,100124.56
2022-08-23T04:14:52.393Z,100126.06
2022-08-23T04:17:21.597Z,100127.13
2022-08-23T04:19:49.709Z,100131.59
2022-08-23T04:22:19.746Z,100129.48
2022-08-23T04:24:48.159Z,100133.20
2022-08-23T04:27:17.178Z,100132.30
2022-08-23T04:29:45.575Z,100135.90
2022-08-23T04:32:14.782Z,100139.86
2022-08-23T04:34:54.731Z,100146.92
2022-08-23T04:37:23.375Z,100147.17
2022-08-23T04:40:10.291Z,100151.31
2022-08-23T04:42:43.582Z,100149.41
2022-08-23T04:45:11.834Z,100152.77
2022-08-23T04:47:44.500Z,100159.96
2022-08-23T04:50:12.734Z,100164.35
2022-08-23T04:53:03.711Z,100163.91
2022-08-23T04:55:35.486Z,100168.55
2022-08-23T04:58:08.065Z,100168.39
2022-08-23T05:00:42.781Z,100170.68
2022-08-23T05:03:11.025Z,100170.61
2022-08-23T05:05:38.954Z,100175.73
2022-08-23T05:08:06.818Z,100173.65
2022-08-23T05:10:35.149Z,100180.85
2022-08-23T05:13:04.127Z,100184.49
2022-08-23T05:15:32.008Z,100187.39
2022-08-23T05:18:05.206Z,100185.55
2022-08-23T05:20:34.190Z,100189.13
2022-08-23T05:23:02.334Z,100193.96
2022-08-23T05:25:52.512Z,100197.91
2022-08-23T05:28:38.979Z,100200.89
2022-08-23T05:31:17.173Z,100200.31
2022-08-23T05:33:48.480Z,100195.22
2022-08-23T05:36:20.374Z,100197.11
2022-08-23T05:38:49.680Z,100196.52
2022-08-23T05:41:18.276Z,100199.89
2022-08-23T05:43:49.486Z,100206.55
2022-08-23T05:46:26.546Z,100212.13
2022-08-23T05:49:17.569Z,100220.30
2022-08-23T05:51:51.583Z,100227.27
2022-08-23T05:54:20.395Z,100231.73
2022-08-23T05:56:56.423Z,100232.16
2022-08-23T05:59:24.234Z,100238.42
2022-08-23T06:01:52.066Z,100237.81
2022-08-23T06:04:20.720Z,100241.20
2022-08-23T06:06:49.577Z,100241.54
2022-08-23T06:09:18.572Z,100244.82
2022-08-23T06:11:48.375Z,100243.25
2022-08-23T06:14:17.230Z,100245.16
2022-08-23T06:16:53.628Z,100248.15
2022-08-23T06:19:24.874Z,100244.48
2022-08-23T06:22:11.486Z,100241.39
2022-08-23T06:24:42.980Z,100244.17
2022-08-23T06:27:16.262Z,100244.47
2022-08-23T06:29:44.514Z,100248.02
2022-08-23T06:32:48.689Z,100253.08
2022-08-23T06:35:45.572Z,100255.32
2022-08-23T06:38:20.847Z,100254.84
2022-08-23T06:41:07.441Z,100254.48
2022-08-23T06:43:52.168Z,100254.03
2022-08-23T06:46:52.437Z,100253.77
2022-08-23T06:49:20.445Z,100260.23
2022-08-23T06:51:53.499Z,100263.45
2022-08-23T06:54:44.340Z,100267.23
2022-08-23T06:57:44.288Z,100266.16
2022-08-23T07:00:39.045Z,100261.16
2022-08-23T07:03:19.471Z,100257.78
2022-08-23T07:06:05.883Z,100260.99
2022-08-23T07:08:36.122Z,100253.29
2022-08-23T07:11:04.715Z,100250.45
2022-08-23T07:13:33.110Z,100248.73
2022-08-23T07:16:03.762Z,100248.16
2022-08-23T07:18:33.629Z,100248.30
2022-08-23T07:21:03.500Z,100250.55
2022-08-23T07:23:34.504Z,100249.73
2022-08-23T07:26:11.611Z,100247.50
2022-08-23T07:28:41.856Z,100247.25
2022-08-23T07:31:23.439Z,100250.54
2022-08-23T07:33:51.864Z,100252.21
2022-08-23T07:36:23.362Z,100249.80
2022-08-23T07:38:53.274Z,100246.73
2022-08-23T07:41:25.337Z,100246.22
2022-08-23T07:43:55.126Z,100248.19
2022-08-23T07:46:23.045Z,100253.84
2022-08-23T07:48:54.689Z,100252.09
2022-08-23T07:51:26.730Z,100247.98
2022-08-23T07:53:54.759Z,100243.99
2022-08-23T07:56:23.049Z,100243.77
2022-08-23T07:59:02.594Z,100247.53
2022-08-23T08:01:56.735Z,100249.45
2022-08-23T08:04:26.758Z,100253.08
2022-08-23T08:07:17.839Z,100257.13
2022-08-23T08:09:45.106Z,100255.05
2022-08-23T08:12:12.932Z,100254.56
2022-08-23T08:14:42.576Z,100250.14
2022-08-23T08:17:11.111Z,100249.90
2022-08-23T08:19:57.412Z,100252.02
2022-08-23T08:22:58.564Z,100252.52
2022-08-23T08:25:38.557Z,100252.25
2022-08-23T08:28:11.477Z,100254.75
2022-08-23T08:30:43.223Z,100249.73
2022-08-23T08:33:11.171Z,100249.15
2022-08-23T08:35:39.423Z,100252.23
2022-08-23T08:38:07.547Z,100254.70
2022-08-23T08:40:40.450Z,100254.52
2022-08-23T08:43:40.766Z,100254.70
2022-08-23T08:46:17.038Z,100257.02
2022-08-23T08:48:49.873Z,100257.60
2022-08-23T08:51:41.084Z,100259.96
2022-08-23T08:54:12.995Z,100262.39
2022-08-23T08:56:51.100Z,100261.67
2022-08-23T08:59:58.390Z,100267.12
2022-08-23T09:02:33.943Z,100261.70
2022-08-23T09:05:11.728Z,100261.98
2022-08-23T09:07:59.061Z,100263.03
2022-08-23T09:10:47.825Z,100261.42
2022-08-23T09:13:24.774Z,100259.53
2022-08-23T09:16:10.925Z,100256.30
2022-08-23T09:18:39.211Z,100256.16
2022-08-23T09:21:08.839Z,100257.60
2022-08-23T09:23:47.035Z,100258.84
2022-08-23T09:26:30.718Z,100258.73
2022-08-23T09:29:14.537Z,100261.52
2022-08-23T09:32:02.404Z,100260.41
2022-08-23T09:34:37.862Z,100257.88
2022-08-23T09:37:17.079Z,100260.02
2022-08-23T09:39:51.599Z,100255.89
2022-08-23T09:42:36.673Z,100257.98
2022-08-23T09:45:35.341Z,100258.38
2022-08-23T09:48:06.321Z,100254.23
2022-08-23T09:50:49.513Z,100252.42
2022-08-23T09:53:28.085Z,100253.73
2022-08-23T09:55:59.099Z,100249.16
2022-08-23T09:58:37.560Z,100250.49
2022-08-23T10:01:23.814Z,100245.06
2022-08-23T10:04:09.372Z,100247.73
2022-08-23T10:06:38.512Z,100251.84
2022-08-23T10:09:09.194Z,100250.98
2022-08-23T10:11:45.356Z,100248.92
2022-08-23T10:14:17.932Z,100247.00
2022-08-23T10:17:11.178Z,100248.69
2022-08-23T10:19:51.403Z,100244.19
2022-08-23T10:22:22.069Z,100245.70
2022-08-23T10:25:33.427Z,100239.63
2022-08-23T10:28:39.363Z,100241.54
2022-08-23T10:31:29.235Z,100237.50
2022-08-23T10:34:24.685Z,100229.39
2022-08-23T10:37:10.929Z,100229.44
2022-08-23T10:39:49.251Z,100227.31
2022-08-23T10:42:31.754Z,100227.86
2022-08-23T10:45:04.095Z,100233.30
2022-08-23T10:47:42.027Z,100228.95
2022-08-23T10:50:22.186Z,100229.36
2022-08-23T10:53:10.925Z,100230.70
2022-08-23T10:56:03.064Z,100232.98
2022-08-23T10:58:43.668Z,100235.70
2022-08-23T11:01:21.302Z,100232.95
2022-08-23T11:04:03.743Z,100236.75
2022-08-23T11:06:36.506Z,100233.20
2022-08-23T11:09:28.339Z,100229.40
2022-08-23T11:12:24.281Z,100221.58
2022-08-23T11:15:07.569Z,100225.19
2022-08-23T11:17:59.159Z,100226.62
2022-08-23T11:20:49.071Z,100221.30
2022-08-23T11:23:31.512Z,100220.30
2022-08-23T11:26:00.854Z,100223.52
2022-08-23T11:28:30.608Z,100228.39
2022-08-23T11:31:07.793Z,100223.77
2022-08-23T11:34:03.047Z,100222.27
2022-08-23T11:36:32.351Z,100225.39
2022-08-23T11:39:02.632Z,100228.23
2022-08-23T11:41:55.542Z,100224.84
2022-08-23T11:44:34.602Z,100222.60
2022-08-23T11:47:05.893Z,100225.30
2022-08-23T11:49:49.802Z,100227.81
2022-08-23T11:52:20.632Z,100226.44
2022-08-23T11:55:07.276Z,100218.98
2022-08-23T11:57:56.499Z,100224.84
2022-08-23T12:00:29.323Z,100225.73
2022-08-23T12:03:06.296Z,100224.89
2022-08-23T12:05:34.060Z,100221.16
2022-08-23T12:08:02.613Z,100222.24
2022-08-23T12:10:42.475Z,100220.70
2022-08-23T12:13:23.414Z,100220.26
2022-08-23T12:16:20.110Z,100218.57
2022-08-23T12:18:51.329Z,100220.11
2022-08-23T12:21:34.140Z,100224.00
2022-08-23T12:24:13.790Z,100222.70
2022-08-23T12:26:53.399Z,100217.26
2022-08-23T12:29:50.214Z,100216.55
2022-08-23T12:32:42.506Z,100213.65
2022-08-23T12:35:25.435Z,100205.05
2022-08-23T12:38:04.014Z,100208.38
2022-08-23T12:40:44.596Z,100199.65
2022-08-23T12:43:24.621Z,100200.31
2022-08-23T12:46:00.952Z,100196.19
2022-08-23T12:48:33.702Z,100188.59
2022-08-23T12:51:10.795Z,100186.77
2022-08-23T12:53:45.133Z,100184.77
2022-08-23T12:56:20.078Z,100187.40
2022-08-23T12:58:54.790Z,100189.60
2022-08-23T13:01:30.026Z,100192.67
2022-08-23T13:04:14.372Z,100190.49
2022-08-23T13:06:49.595Z,100197.09
2022-08-23T13:09:24.870Z,100193.14
2022-08-23T13:11:53.353Z,100190.13
2022-08-23T13:14:34.192Z,100187.20
2022-08-23T13:17:18.911Z,100186.02
2022-08-23T13:19:49.622Z,100182.08
2022-08-23T13:22:27.524Z,100172.82
2022-08-23T13:25:28.123Z,100165.17
2022-08-23T13:27:58.928Z,100153.70
2022-08-23T13:30:33.783Z,100143.14
2022-08-23T13:33:22.200Z,100142.23
2022-08-23T13:35:52.451Z,100146.18
2022-08-23T13:38:26.425Z,100145.05
2022-08-23T13:41:04.194Z,100154.70
2022-08-23T13:43:37.946Z,100164.48
2022-08-23T13:46:27.008Z,100171.69
2022-08-23T13:48:59.532Z,100179.69
2022-08-23T13:51:32.067Z,100186.83
2022-08-23T13:54:03.847Z,100186.34
2022-08-23T13:56:37.197Z,100189.13
2022-08-23T13:59:19.131Z,100194.95
2022-08-23T14:01:47.106Z,100190.34
2022-08-23T14:04:14.829Z,100191.27
2022-08-23T14:06:42.601Z,100185.55
2022-08-23T14:09:17.384Z,100187.19
2022-08-23T14:11:48.290Z,100180.63
2022-08-23T14:14:16.138Z,100177.29
2022-08-23T14:16:44.010Z,100171.14
2022-08-23T14:19:18.092Z,100169.81
2022-08-23T14:22:00.841Z,100177.92
2022-08-23T14:24:28.605Z,100182.87
2022-08-23T14:26:57.261Z,100188.04
2022-08-23T14:29:28.045Z,100194.23
2022-08-23T14:31:59.468Z,100202.55
2022-08-23T14:34:29.020Z,100207.80
2022-08-23T14:39:46.678Z,100217.85
2022-08-23T14:42:19.459Z,100219.14
2022-08-23T14:44:48.608Z,100226.20
2022-08-23T14:47:17.473Z,100229.05
2022-08-23T14:49:45.762Z,100232.79
2022-08-23T14:52:15.045Z,100242.15
2022-08-23T14:54:43.169Z,100246.70
2022-08-23T14:57:11.671Z,100248.06
2022-08-23T14:59:39.399Z,100240.77
2022-08-23T15:02:10.855Z,100245.86
2022-08-23T15:04:39.628Z,100244.23
2022-08-23T15:07:17.602Z,100248.14
2022-08-23T15:09:49.449Z,100251.11
2022-08-23T15:15:12.368Z,100254.63
2022-08-23T15:17:53.191Z,100252.86
2022-08-23T15:20:33.890Z,100249.25
2022-08-23T15:23:02.264Z,100253.63
2022-08-23T15:25:33.530Z,100257.61
2022-08-23T15:28:02.453Z,100267.99
2022-08-23T15:30:33.338Z,100276.46
2022-08-23T15:33:02.199Z,100279.67
2022-08-23T15:35:38.692Z,100282.20
2022-08-23T15:38:08.817Z,100283.24
2022-08-23T15:40:36.813Z,100278.50
2022-08-23T15:43:04.578Z,100278.70
2022-08-23T15:45:33.646Z,100276.39
2022-08-23T15:48:06.120Z,100275.10
2022-08-23T15:50:35.024Z,100278.66
2022-08-23T15:53:02.993Z,100283.79
2022-08-23T15:55:32.712Z,100291.91
2022-08-23T15:58:00.639Z,100295.96
2022-08-23T16:00:29.370Z,100299.86
2022-08-23T16:03:19.269Z,100303.65
2022-08-23T16:05:47.513Z,100308.18
2022-08-23T16:08:29.464Z,100305.54
2022-08-23T16:10:58.435Z,100302.99
2022-08-23T16:13:26.783Z,100295.05
2022-08-23T16:15:54.815Z,100292.27
2022-08-23T16:18:23.430Z,100288.84
2022-08-23T16:20:54.612Z,100291.96
2022-08-23T16:23:23.149Z,100297.30
2022-08-23T16:25:50.927Z,100298.72
2022-08-23T16:28:18.748Z,100301.36
2022-08-23T16:30:46.756Z,100307.13
2022-08-23T16:33:14.627Z,100311.00
2022-08-23T16:35:42.452Z,100314.05
2022-08-23T16:38:10.204Z,100313.02
2022-08-23T16:40:38.004Z,100319.89
2022-08-23T16:43:05.726Z,100323.58
2022-08-23T16:45:33.668Z,100325.66
2022-08-23T16:48:01.441Z,100329.23
2022-08-23T16:50:32.744Z,100336.23
2022-08-23T16:53:04.955Z,100345.36
2022-08-23T16:55:36.689Z,100352.83
2022-08-23T16:58:05.627Z,100352.96
2022-08-23T17:00:34.536Z,100362.42
2022-08-23T17:03:03.003Z,100369.48
2022-08-23T17:05:30.954Z,100373.54
2022-08-23T17:07:58.860Z,100374.67
2022-08-23T17:10:26.993Z,100380.88
2022-08-23T17:12:57.170Z,100389.16
2022-08-23T17:15:36.119Z,100396.08
2022-08-23T17:18:04.675Z,100398.18
2022-08-23T17:20:36.105Z,100392.33
2022-08-23T17:23:05.789Z,100397.69
2022-08-23T17:25:35.284Z,100400.90
2022-08-23T17:28:04.838Z,100404.89
2022-08-23T17:30:32.911Z,100404.02
2022-08-23T17:33:00.965Z,100399.02
2022-08-23T17:35:33.898Z,100401.48
2022-08-23T17:38:05.046Z,100407.77
2022-08-23T17:40:39.449Z,100409.84
2022-08-23T17:43:07.791Z,100408.48
2022-08-23T17:45:45.017Z,100407.84
2022-08-23T17:48:14.898Z,100409.18
2022-08-23T17:50:43.799Z,100412.83
2022-08-23T17:53:14.369Z,100413.72
2022-08-23T17:55:42.479Z,100413.52
2022-08-23T17:58:11.914Z,100420.39
2022-08-23T18:00:40.198Z,100424.23
2022-08-23T18:03:08.206Z,100427.05
2022-08-23T18:05:39.973Z,100426.14
2022-08-23T18:08:08.547Z,100428.16
2022-08-23T18:10:36.645Z,100428.39
2022-08-23T18:13:05.457Z,100428.02
2022-08-23T18:15:33.205Z,100431.56
2022-08-23T18:18:01.900Z,100432.86
2022-08-23T18:20:30.863Z,100431.52
2022-08-23T18:22:59.878Z,100434.73
2022-08-23T18:25:29.281Z,100437.03
2022-08-23T18:28:06.573Z,100441.52
2022-08-23T18:30:37.371Z,100442.50
2022-08-23T18:33:06.654Z,100444.23
2022-08-23T18:35:34.803Z,100450.71
2022-08-23T18:38:03.059Z,100452.13
2022-08-23T18:40:31.001Z,100457.46
2022-08-23T18:42:58.819Z,100458.99
2022-08-23T18:45:26.719Z,100459.27
2022-08-23T18:47:54.641Z,100466.70
2022-08-23T18:50:22.578Z,100464.89
2022-08-23T18:52:50.297Z,100467.06
2022-08-23T18:55:20.188Z,100466.95
2022-08-23T18:57:47.972Z,100463.47
2022-08-23T19:00:15.781Z,100462.40
2022-08-23T19:02:43.639Z,100462.91
2022-08-23T19:05:11.423Z,100463.91
2022-08-23T19:07:39.253Z,100462.58
2022-08-23T19:10:07.419Z,100466.23
2022-08-23T19:12:35.165Z,100467.04
2022-08-23T19:15:03.522Z,100463.01
2022-08-23T19:17:31.343Z,100461.05
2022-08-23T19:19:59.725Z,100457.67
2022-08-23T19:22:27.501Z,100459.68
2022-08-23T19:24:56.018Z,100456.23
2022-08-23T19:27:23.808Z,100457.52
2022-08-23T19:29:51.540Z,100458.12
2022-08-23T19:32:19.386Z,100455.48
2022-08-23T19:34:48.365Z,100456.02
2022-08-23T19:37:22.777Z,100453.94
2022-08-23T19:39:51.006Z,100453.45
2022-08-23T19:42:20.514Z,100453.59
2022-08-23T19:44:48.330Z,100454.40
2022-08-23T19:47:19.595Z,100455.09
2022-08-23T19:49:48.585Z,100455.77
2022-08-23T19:52:16.683Z,100456.54
2022-08-23T19:54:44.486Z,100461.20
2022-08-23T19:57:12.251Z,100458.44
2022-08-23T19:59:40.431Z,100463.16
2022-08-23T20:02:09.916Z,100460.16
2022-08-23T20:04:37.798Z,100464.30
2022-08-23T20:07:06.281Z,100461.16
2022-08-23T20:09:34.955Z,100458.84
2022-08-23T20:12:03.499Z,100459.34
2022-08-23T20:14:33.196Z,100457.61
2022-08-23T20:17:04.456Z,100456.36
2022-08-23T20:19:32.246Z,100457.06
2022-08-23T20:22:19.965Z,100460.59
2022-08-23T20:24:52.029Z,100463.12
2022-08-23T20:27:24.136Z,100465.44
2022-08-23T20:30:01.664Z,100466.23
2022-08-23T20:32:31.269Z,100466.70
2022-08-23T20:35:00.616Z,100460.42
2022-08-23T20:37:28.653Z,100464.42
2022-08-23T20:39:56.744Z,100460.43
2022-08-23T20:42:24.663Z,100460.51
2022-08-23T20:44:52.646Z,100458.83
2022-08-23T20:47:20.687Z,100458.11
2022-08-23T20:49:48.637Z,100452.27
2022-08-23T20:52:17.876Z,100450.54
2022-08-23T20:54:46.130Z,100446.56
2022-08-23T20:57:13.875Z,100443.98
2022-08-23T20:59:44.730Z,100447.05
2022-08-23T21:02:13.226Z,100446.80
2022-08-23T21:04:41.109Z,100443.53
2022-08-23T21:07:09.254Z,100445.63
2022-08-23T21:09:37.089Z,100444.63
2022-08-23T21:12:06.094Z,100444.50
2022-08-23T21:14:35.721Z,100440.64
2022-08-23T21:17:03.489Z,100439.34
2022-08-23T21:19:31.330Z,100436.86
2022-08-23T21:21:59.122Z,100431.73
2022-08-23T21:24:26.894Z,100428.52
2022-08-23T21:26:54.635Z,100429.44
2022-08-23T21:29:22.432Z,100425.98
2022-08-23T21:31:50.160Z,100427.27
2022-08-23T21:34:18.458Z,100433.08
2022-08-23T21:36:46.279Z,100432.83
2022-08-23T21:39:14.062Z,100438.36
2022-08-23T21:41:44.705Z,100436.45
2022-08-23T21:44:16.239Z,100438.38
2022-08-23T21:46:45.253Z,100440.24
2022-08-23T21:49:14.066Z,100440.08
2022-08-23T21:51:42.948Z,100440.56
2022-08-23T21:54:12.993Z,100438.91
2022-08-23T21:56:41.475Z,100442.00
2022-08-23T21:59:12.397Z,100442.59
2022-08-23T22:01:41.706Z,100434.28
2022-08-23T22:04:13.345Z,100435.66
2022-08-23T22:06:43.650Z,100433.40
2022-08-23T22:09:15.390Z,100438.58
2022-08-23T22:11:44.620Z,100438.77
2022-08-23T22:14:16.684Z,100437.94
2022-08-23T22:16:44.529Z,100434.46
2022-08-23T22:19:14.253Z,100435.04
2022-08-23T22:21:48.792Z,100434.34
2022-08-23T22:24:20.040Z,100426.94
2022-08-23T22:26:50.425Z,100425.73
2022-08-23T22:29:18.359Z,100428.75
2022-08-23T22:31:47.936Z,100433.40
2022-08-23T22:34:15.701Z,100438.11
2022-08-23T22:36:43.564Z,100439.42
2022-08-23T22:39:14.073Z,100436.10
2022-08-23T22:41:41.809Z,100441.34
2022-08-23T22:44:09.553Z,100441.86
2022-08-23T22:46:37.505Z,100444.53
2022-08-23T22:49:07.158Z,100446.44
2022-08-23T22:51:35.772Z,100447.43
2022-08-23T22:54:07.016Z,100447.89
2022-08-23T22:56:40.090Z,100447.46
2022-08-23T22:59:09.511Z,100449.23
2022-08-23T23:01:41.188Z,100452.70
2022-08-23T23:04:14.416Z,100450.35
2022-08-23T23:06:42.834Z,100449.52
2022-08-23T23:09:12.436Z,100448.93
2022-08-23T23:11:41.985Z,100451.82
2022-08-23T23:14:11.857Z,100454.81
2022-08-23T23:16:40.603Z,100455.37
2022-08-23T23:19:27.350Z,100457.84
2022-08-23T23:21:57.584Z,100450.71
2022-08-23T23:24:38.137Z,100451.58
2022-08-23T23:27:07.143Z,100447.57
2022-08-23T23:29:35.516Z,100449.23
2022-08-23T23:32:03.544Z,100448.00
2022-08-23T23:34:31.761Z,100450.48
2022-08-23T23:36:59.676Z,100454.15
2022-08-23T23:39:28.516Z,100458.08
2022-08-23T23:41:56.431Z,100457.95
2022-08-23T23:44:31.357Z,100461.90
2022-08-23T23:47:02.795Z,100459.23
2022-08-23T23:49:33.169Z,100459.18
2022-08-23T23:52:04.079Z,100462.77
2022-08-23T23:54:35.509Z,100459.68
2022-08-23T23:57:05.715Z,100458.27
2022-08-23T23:59:33.938Z,100455.13
